sensor_id;sensor_type;location;lat;lon;timestamp;P1;durP1;ratioP1;P2;durP2;ratioP2
8702;SDS011;9002;42.708;23.186;2023-10-13T00:01:02;17.23;;;11.43;;
8702;SDS011;9002;42.708;23.186;2023-10-13T00:03:33;14.77;;;10.47;;
8702;SDS011;9002;42.708;23.186;2023-10-13T00:06:02;15.70;;;10.60;;
8702;SDS011;9002;42.708;23.186;2023-10-13T00:08:29;16.63;;;10.93;;
8702;SDS011;9002;42.708;23.186;2023-10-13T00:10:56;14.27;;;10.80;;
8702;SDS011;9002;42.708;23.186;2023-10-13T00:13:26;17.13;;;11.33;;
8702;SDS011;9002;42.708;23.186;2023-10-13T00:15:54;19.33;;;11.57;;
8702;SDS011;9002;42.708;23.186;2023-10-13T00:18:24;16.47;;;10.77;;
8702;SDS011;9002;42.708;23.186;2023-10-13T00:20:59;15.40;;;10.70;;
8702;SDS011;9002;42.708;23.186;2023-10-13T00:23:28;15.40;;;10.97;;
8702;SDS011;9002;42.708;23.186;2023-10-13T00:25:57;14.73;;;10.87;;
8702;SDS011;9002;42.708;23.186;2023-10-13T00:28:25;13.20;;;10.53;;
8702;SDS011;9002;42.708;23.186;2023-10-13T00:31:00;15.17;;;10.67;;
8702;SDS011;9002;42.708;23.186;2023-10-13T00:33:35;15.43;;;10.80;;
8702;SDS011;9002;42.708;23.186;2023-10-13T00:36:04;12.93;;;10.67;;
8702;SDS011;9002;42.708;23.186;2023-10-13T00:38:35;16.40;;;11.37;;
8702;SDS011;9002;42.708;23.186;2023-10-13T00:41:02;15.03;;;10.00;;
8702;SDS011;9002;42.708;23.186;2023-10-13T00:43:43;19.43;;;10.97;;
8702;SDS011;9002;42.708;23.186;2023-10-13T00:46:29;16.30;;;11.23;;
8702;SDS011;9002;42.708;23.186;2023-10-13T00:48:59;15.83;;;11.10;;
8702;SDS011;9002;42.708;23.186;2023-10-13T00:51:28;16.97;;;11.00;;
8702;SDS011;9002;42.708;23.186;2023-10-13T00:54:01;18.53;;;10.33;;
8702;SDS011;9002;42.708;23.186;2023-10-13T00:56:33;14.73;;;10.40;;
8702;SDS011;9002;42.708;23.186;2023-10-13T00:58:59;17.60;;;10.80;;
8702;SDS011;9002;42.708;23.186;2023-10-13T01:01:28;15.43;;;11.13;;
8702;SDS011;9002;42.708;23.186;2023-10-13T01:03:55;13.87;;;10.00;;
8702;SDS011;9002;42.708;23.186;2023-10-13T01:06:24;14.43;;;10.53;;
8702;SDS011;9002;42.708;23.186;2023-10-13T01:08:58;19.73;;;11.03;;
8702;SDS011;9002;42.708;23.186;2023-10-13T01:11:36;14.77;;;10.27;;
8702;SDS011;9002;42.708;23.186;2023-10-13T01:14:03;14.87;;;9.93;;
8702;SDS011;9002;42.708;23.186;2023-10-13T01:16:31;12.33;;;10.33;;
8702;SDS011;9002;42.708;23.186;2023-10-13T01:18:57;18.70;;;10.90;;
8702;SDS011;9002;42.708;23.186;2023-10-13T01:21:30;14.13;;;11.07;;
8702;SDS011;9002;42.708;23.186;2023-10-13T01:24:00;12.37;;;10.30;;
8702;SDS011;9002;42.708;23.186;2023-10-13T01:26:27;13.67;;;10.30;;
8702;SDS011;9002;42.708;23.186;2023-10-13T01:28:56;13.37;;;10.37;;
8702;SDS011;9002;42.708;23.186;2023-10-13T01:31:24;15.53;;;10.10;;
8702;SDS011;9002;42.708;23.186;2023-10-13T01:33:52;15.37;;;10.73;;
8702;SDS011;9002;42.708;23.186;2023-10-13T01:36:23;14.03;;;10.87;;
8702;SDS011;9002;42.708;23.186;2023-10-13T01:38:49;16.07;;;10.37;;
8702;SDS011;9002;42.708;23.186;2023-10-13T01:41:18;17.07;;;10.17;;
8702;SDS011;9002;42.708;23.186;2023-10-13T01:43:44;12.27;;;9.80;;
8702;SDS011;9002;42.708;23.186;2023-10-13T01:46:11;18.57;;;11.47;;
8702;SDS011;9002;42.708;23.186;2023-10-13T01:48:40;15.13;;;10.70;;
8702;SDS011;9002;42.708;23.186;2023-10-13T01:51:08;13.63;;;10.17;;
8702;SDS011;9002;42.708;23.186;2023-10-13T01:53:36;13.97;;;10.43;;
8702;SDS011;9002;42.708;23.186;2023-10-13T01:56:04;12.60;;;9.97;;
8702;SDS011;9002;42.708;23.186;2023-10-13T01:58:37;14.93;;;10.43;;
8702;SDS011;9002;42.708;23.186;2023-10-13T02:01:07;14.07;;;10.63;;
8702;SDS011;9002;42.708;23.186;2023-10-13T02:03:35;14.20;;;10.07;;
8702;SDS011;9002;42.708;23.186;2023-10-13T02:06:06;15.73;;;10.40;;
8702;SDS011;9002;42.708;23.186;2023-10-13T02:08:35;18.13;;;13.77;;
8702;SDS011;9002;42.708;23.186;2023-10-13T02:11:05;13.27;;;10.50;;
8702;SDS011;9002;42.708;23.186;2023-10-13T02:13:32;17.13;;;13.00;;
8702;SDS011;9002;42.708;23.186;2023-10-13T02:16:07;17.87;;;11.13;;
8702;SDS011;9002;42.708;23.186;2023-10-13T02:18:34;13.90;;;10.03;;
8702;SDS011;9002;42.708;23.186;2023-10-13T02:21:07;14.07;;;9.33;;
8702;SDS011;9002;42.708;23.186;2023-10-13T02:23:38;15.90;;;10.20;;
8702;SDS011;9002;42.708;23.186;2023-10-13T02:26:10;14.70;;;9.67;;
8702;SDS011;9002;42.708;23.186;2023-10-13T02:28:37;16.80;;;11.07;;
8702;SDS011;9002;42.708;23.186;2023-10-13T02:31:04;10.53;;;9.43;;
8702;SDS011;9002;42.708;23.186;2023-10-13T02:33:33;16.00;;;10.43;;
8702;SDS011;9002;42.708;23.186;2023-10-13T02:36:02;13.80;;;10.23;;
8702;SDS011;9002;42.708;23.186;2023-10-13T02:38:30;16.03;;;10.23;;
8702;SDS011;9002;42.708;23.186;2023-10-13T02:41:09;12.17;;;9.10;;
8702;SDS011;9002;42.708;23.186;2023-10-13T02:43:36;12.47;;;9.90;;
8702;SDS011;9002;42.708;23.186;2023-10-13T02:46:04;13.93;;;10.40;;
8702;SDS011;9002;42.708;23.186;2023-10-13T02:48:32;14.53;;;10.17;;
8702;SDS011;9002;42.708;23.186;2023-10-13T02:51:05;17.50;;;11.20;;
8702;SDS011;9002;42.708;23.186;2023-10-13T02:53:40;15.30;;;11.10;;
8702;SDS011;9002;42.708;23.186;2023-10-13T02:56:07;13.67;;;10.73;;
8702;SDS011;9002;42.708;23.186;2023-10-13T02:58:34;15.33;;;11.00;;
8702;SDS011;9002;42.708;23.186;2023-10-13T03:01:09;13.10;;;11.23;;
8702;SDS011;9002;42.708;23.186;2023-10-13T03:03:48;16.00;;;11.10;;
8702;SDS011;9002;42.708;23.186;2023-10-13T03:06:19;14.70;;;11.97;;
8702;SDS011;9002;42.708;23.186;2023-10-13T03:08:49;14.77;;;9.97;;
8702;SDS011;9002;42.708;23.186;2023-10-13T03:11:16;16.33;;;10.57;;
8702;SDS011;9002;42.708;23.186;2023-10-13T03:13:48;16.30;;;11.63;;
8702;SDS011;9002;42.708;23.186;2023-10-13T03:16:17;11.43;;;9.60;;
8702;SDS011;9002;42.708;23.186;2023-10-13T03:18:45;14.53;;;9.87;;
8702;SDS011;9002;42.708;23.186;2023-10-13T03:21:21;15.30;;;10.27;;
8702;SDS011;9002;42.708;23.186;2023-10-13T03:23:55;14.53;;;10.80;;
8702;SDS011;9002;42.708;23.186;2023-10-13T03:26:22;17.57;;;10.87;;
8702;SDS011;9002;42.708;23.186;2023-10-13T03:28:48;18.30;;;11.27;;
8702;SDS011;9002;42.708;23.186;2023-10-13T03:31:19;14.27;;;10.53;;
8702;SDS011;9002;42.708;23.186;2023-10-13T03:33:53;16.97;;;10.97;;
8702;SDS011;9002;42.708;23.186;2023-10-13T03:36:25;19.33;;;12.67;;
8702;SDS011;9002;42.708;23.186;2023-10-13T03:39:22;13.97;;;11.33;;
8702;SDS011;9002;42.708;23.186;2023-10-13T03:41:54;15.57;;;11.63;;
8702;SDS011;9002;42.708;23.186;2023-10-13T03:44:22;14.20;;;10.57;;
8702;SDS011;9002;42.708;23.186;2023-10-13T03:46:55;15.00;;;10.43;;
8702;SDS011;9002;42.708;23.186;2023-10-13T03:49:23;13.97;;;10.30;;
8702;SDS011;9002;42.708;23.186;2023-10-13T03:51:50;14.23;;;10.43;;
8702;SDS011;9002;42.708;23.186;2023-10-13T03:54:19;12.87;;;9.90;;
8702;SDS011;9002;42.708;23.186;2023-10-13T03:56:47;13.93;;;10.73;;
8702;SDS011;9002;42.708;23.186;2023-10-13T03:59:17;16.87;;;10.67;;
8702;SDS011;9002;42.708;23.186;2023-10-13T04:01:44;15.57;;;11.07;;
8702;SDS011;9002;42.708;23.186;2023-10-13T04:04:12;16.50;;;10.73;;
8702;SDS011;9002;42.708;23.186;2023-10-13T04:06:45;15.50;;;10.27;;
8702;SDS011;9002;42.708;23.186;2023-10-13T04:09:20;17.27;;;10.83;;
8702;SDS011;9002;42.708;23.186;2023-10-13T04:12:06;16.87;;;13.87;;
8702;SDS011;9002;42.708;23.186;2023-10-13T04:14:53;16.27;;;12.87;;
8702;SDS011;9002;42.708;23.186;2023-10-13T04:17:36;14.93;;;11.80;;
8702;SDS011;9002;42.708;23.186;2023-10-13T04:20:10;14.80;;;11.50;;
8702;SDS011;9002;42.708;23.186;2023-10-13T04:22:53;17.70;;;11.73;;
8702;SDS011;9002;42.708;23.186;2023-10-13T04:25:34;17.50;;;11.53;;
8702;SDS011;9002;42.708;23.186;2023-10-13T04:28:17;14.17;;;12.63;;
8702;SDS011;9002;42.708;23.186;2023-10-13T04:31:00;18.63;;;12.80;;
8702;SDS011;9002;42.708;23.186;2023-10-13T04:33:37;15.17;;;11.30;;
8702;SDS011;9002;42.708;23.186;2023-10-13T04:36:16;18.63;;;12.47;;
8702;SDS011;9002;42.708;23.186;2023-10-13T04:38:48;19.80;;;12.60;;
8702;SDS011;9002;42.708;23.186;2023-10-13T04:41:21;20.07;;;13.63;;
8702;SDS011;9002;42.708;23.186;2023-10-13T04:43:56;19.73;;;13.30;;
8702;SDS011;9002;42.708;23.186;2023-10-13T04:46:29;24.27;;;14.03;;
8702;SDS011;9002;42.708;23.186;2023-10-13T04:49:19;19.07;;;14.60;;
8702;SDS011;9002;42.708;23.186;2023-10-13T04:51:54;22.10;;;14.67;;
8702;SDS011;9002;42.708;23.186;2023-10-13T04:54:39;21.23;;;14.13;;
8702;SDS011;9002;42.708;23.186;2023-10-13T04:57:15;18.43;;;13.47;;
8702;SDS011;9002;42.708;23.186;2023-10-13T05:00:00;23.37;;;15.67;;
8702;SDS011;9002;42.708;23.186;2023-10-13T05:02:46;18.97;;;14.07;;
8702;SDS011;9002;42.708;23.186;2023-10-13T05:05:42;27.63;;;15.77;;
8702;SDS011;9002;42.708;23.186;2023-10-13T05:08:32;27.40;;;14.40;;
8702;SDS011;9002;42.708;23.186;2023-10-13T05:11:17;18.97;;;12.93;;
8702;SDS011;9002;42.708;23.186;2023-10-13T05:14:02;23.00;;;13.40;;
8702;SDS011;9002;42.708;23.186;2023-10-13T05:16:46;23.90;;;13.43;;
8702;SDS011;9002;42.708;23.186;2023-10-13T05:19:31;18.93;;;14.97;;
8702;SDS011;9002;42.708;23.186;2023-10-13T05:22:20;18.10;;;12.97;;
8702;SDS011;9002;42.708;23.186;2023-10-13T05:25:04;21.13;;;13.43;;
8702;SDS011;9002;42.708;23.186;2023-10-13T05:27:50;25.67;;;13.70;;
8702;SDS011;9002;42.708;23.186;2023-10-13T05:30:34;19.80;;;12.80;;
8702;SDS011;9002;42.708;23.186;2023-10-13T05:33:19;17.30;;;13.17;;
8702;SDS011;9002;42.708;23.186;2023-10-13T05:36:09;19.27;;;12.90;;
8702;SDS011;9002;42.708;23.186;2023-10-13T05:38:55;18.90;;;13.67;;
8702;SDS011;9002;42.708;23.186;2023-10-13T05:41:39;20.73;;;12.83;;
8702;SDS011;9002;42.708;23.186;2023-10-13T05:44:24;17.93;;;13.23;;
8702;SDS011;9002;42.708;23.186;2023-10-13T05:47:03;17.53;;;13.50;;
8702;SDS011;9002;42.708;23.186;2023-10-13T05:50:08;24.47;;;13.33;;
8702;SDS011;9002;42.708;23.186;2023-10-13T05:52:53;19.30;;;13.37;;
8702;SDS011;9002;42.708;23.186;2023-10-13T05:55:38;18.83;;;14.70;;
8702;SDS011;9002;42.708;23.186;2023-10-13T05:58:22;18.93;;;15.17;;
8702;SDS011;9002;42.708;23.186;2023-10-13T06:01:11;18.50;;;12.47;;
8702;SDS011;9002;42.708;23.186;2023-10-13T06:03:56;17.07;;;11.53;;
8702;SDS011;9002;42.708;23.186;2023-10-13T06:06:40;20.20;;;13.43;;
8702;SDS011;9002;42.708;23.186;2023-10-13T06:09:24;18.97;;;15.00;;
8702;SDS011;9002;42.708;23.186;2023-10-13T06:12:08;22.80;;;15.77;;
8702;SDS011;9002;42.708;23.186;2023-10-13T06:14:52;19.30;;;15.03;;
8702;SDS011;9002;42.708;23.186;2023-10-13T06:17:38;19.87;;;14.43;;
8702;SDS011;9002;42.708;23.186;2023-10-13T06:20:22;24.47;;;14.60;;
8702;SDS011;9002;42.708;23.186;2023-10-13T06:23:07;19.73;;;14.00;;
8702;SDS011;9002;42.708;23.186;2023-10-13T06:25:52;20.80;;;14.60;;
8702;SDS011;9002;42.708;23.186;2023-10-13T06:28:36;20.73;;;14.87;;
8702;SDS011;9002;42.708;23.186;2023-10-13T06:31:11;17.80;;;13.57;;
8702;SDS011;9002;42.708;23.186;2023-10-13T06:33:47;21.67;;;14.87;;
8702;SDS011;9002;42.708;23.186;2023-10-13T06:36:14;22.43;;;15.40;;
8702;SDS011;9002;42.708;23.186;2023-10-13T06:38:44;20.70;;;15.23;;
8702;SDS011;9002;42.708;23.186;2023-10-13T06:41:20;23.20;;;15.60;;
8702;SDS011;9002;42.708;23.186;2023-10-13T06:43:55;26.17;;;16.80;;
8702;SDS011;9002;42.708;23.186;2023-10-13T06:46:28;25.87;;;16.90;;
8702;SDS011;9002;42.708;23.186;2023-10-13T06:49:00;23.93;;;18.37;;
8702;SDS011;9002;42.708;23.186;2023-10-13T06:51:27;30.50;;;18.03;;
8702;SDS011;9002;42.708;23.186;2023-10-13T06:54:03;25.83;;;17.57;;
8702;SDS011;9002;42.708;23.186;2023-10-13T06:56:35;23.73;;;16.93;;
8702;SDS011;9002;42.708;23.186;2023-10-13T06:59:04;29.33;;;18.60;;
8702;SDS011;9002;42.708;23.186;2023-10-13T07:01:31;21.60;;;16.27;;
8702;SDS011;9002;42.708;23.186;2023-10-13T07:04:05;29.93;;;18.50;;
8702;SDS011;9002;42.708;23.186;2023-10-13T07:06:38;27.00;;;19.33;;
8702;SDS011;9002;42.708;23.186;2023-10-13T07:09:13;28.93;;;18.67;;
8702;SDS011;9002;42.708;23.186;2023-10-13T07:12:01;29.10;;;20.53;;
8702;SDS011;9002;42.708;23.186;2023-10-13T07:14:31;25.97;;;19.17;;
8702;SDS011;9002;42.708;23.186;2023-10-13T07:17:00;24.00;;;18.00;;
8702;SDS011;9002;42.708;23.186;2023-10-13T07:19:31;22.80;;;18.07;;
8702;SDS011;9002;42.708;23.186;2023-10-13T07:21:59;33.50;;;19.13;;
8702;SDS011;9002;42.708;23.186;2023-10-13T07:24:44;25.27;;;18.40;;
8702;SDS011;9002;42.708;23.186;2023-10-13T07:27:14;23.77;;;18.40;;
8702;SDS011;9002;42.708;23.186;2023-10-13T07:29:48;26.37;;;18.67;;
8702;SDS011;9002;42.708;23.186;2023-10-13T07:32:21;24.27;;;17.07;;
8702;SDS011;9002;42.708;23.186;2023-10-13T07:34:53;23.50;;;16.87;;
8702;SDS011;9002;42.708;23.186;2023-10-13T07:37:22;25.60;;;17.60;;
8702;SDS011;9002;42.708;23.186;2023-10-13T07:39:54;21.50;;;18.80;;
8702;SDS011;9002;42.708;23.186;2023-10-13T07:42:23;31.10;;;21.90;;
8702;SDS011;9002;42.708;23.186;2023-10-13T07:44:55;35.60;;;20.50;;
8702;SDS011;9002;42.708;23.186;2023-10-13T07:47:22;25.67;;;21.47;;
8702;SDS011;9002;42.708;23.186;2023-10-13T07:49:53;29.17;;;20.43;;
8702;SDS011;9002;42.708;23.186;2023-10-13T07:52:22;26.47;;;20.47;;
8702;SDS011;9002;42.708;23.186;2023-10-13T07:55:01;27.73;;;20.47;;
8702;SDS011;9002;42.708;23.186;2023-10-13T07:57:36;25.63;;;20.27;;
8702;SDS011;9002;42.708;23.186;2023-10-13T08:00:18;27.27;;;19.97;;
8702;SDS011;9002;42.708;23.186;2023-10-13T08:03:03;29.70;;;22.10;;
8702;SDS011;9002;42.708;23.186;2023-10-13T08:05:51;29.50;;;21.50;;
8702;SDS011;9002;42.708;23.186;2023-10-13T08:08:30;30.47;;;21.90;;
8702;SDS011;9002;42.708;23.186;2023-10-13T08:11:03;30.37;;;21.57;;
8702;SDS011;9002;42.708;23.186;2023-10-13T08:13:37;30.77;;;22.97;;
8702;SDS011;9002;42.708;23.186;2023-10-13T08:16:11;32.07;;;22.70;;
8702;SDS011;9002;42.708;23.186;2023-10-13T08:18:46;33.60;;;23.03;;
8702;SDS011;9002;42.708;23.186;2023-10-13T08:21:15;38.43;;;23.33;;
8702;SDS011;9002;42.708;23.186;2023-10-13T08:23:48;33.67;;;23.40;;
8702;SDS011;9002;42.708;23.186;2023-10-13T08:26:25;34.97;;;23.73;;
8702;SDS011;9002;42.708;23.186;2023-10-13T08:29:04;32.30;;;25.43;;
8702;SDS011;9002;42.708;23.186;2023-10-13T08:31:45;30.50;;;22.97;;
8702;SDS011;9002;42.708;23.186;2023-10-13T08:34:29;32.73;;;23.17;;
8702;SDS011;9002;42.708;23.186;2023-10-13T08:37:05;38.80;;;26.13;;
8702;SDS011;9002;42.708;23.186;2023-10-13T08:39:44;32.20;;;23.53;;
8702;SDS011;9002;42.708;23.186;2023-10-13T08:42:40;32.67;;;22.87;;
8702;SDS011;9002;42.708;23.186;2023-10-13T08:45:36;36.93;;;23.47;;
8702;SDS011;9002;42.708;23.186;2023-10-13T08:48:24;32.80;;;25.07;;
8702;SDS011;9002;42.708;23.186;2023-10-13T08:50:58;36.10;;;24.03;;
8702;SDS011;9002;42.708;23.186;2023-10-13T08:53:36;33.10;;;23.20;;
8702;SDS011;9002;42.708;23.186;2023-10-13T08:56:12;33.50;;;21.77;;
8702;SDS011;9002;42.708;23.186;2023-10-13T08:58:43;28.63;;;20.93;;
8702;SDS011;9002;42.708;23.186;2023-10-13T09:01:32;27.87;;;22.03;;
8702;SDS011;9002;42.708;23.186;2023-10-13T09:04:05;34.70;;;21.63;;
8702;SDS011;9002;42.708;23.186;2023-10-13T09:06:47;28.40;;;21.23;;
8702;SDS011;9002;42.708;23.186;2023-10-13T09:09:44;33.87;;;21.90;;
8702;SDS011;9002;42.708;23.186;2023-10-13T09:12:36;33.33;;;20.97;;
8702;SDS011;9002;42.708;23.186;2023-10-13T09:15:05;25.43;;;20.23;;
8702;SDS011;9002;42.708;23.186;2023-10-13T09:20:38;26.37;;;18.87;;
8702;SDS011;9002;42.708;23.186;2023-10-13T09:23:11;25.83;;;19.03;;
8702;SDS011;9002;42.708;23.186;2023-10-13T09:25:50;29.93;;;18.83;;
8702;SDS011;9002;42.708;23.186;2023-10-13T09:28:23;26.00;;;18.43;;
8702;SDS011;9002;42.708;23.186;2023-10-13T09:30:54;29.03;;;17.43;;
8702;SDS011;9002;42.708;23.186;2023-10-13T09:33:22;33.33;;;18.77;;
8702;SDS011;9002;42.708;23.186;2023-10-13T09:35:58;24.30;;;17.63;;
8702;SDS011;9002;42.708;23.186;2023-10-13T09:38:24;24.80;;;17.20;;
8702;SDS011;9002;42.708;23.186;2023-10-13T09:40:53;25.73;;;17.40;;
8702;SDS011;9002;42.708;23.186;2023-10-13T09:43:23;22.80;;;14.80;;
8702;SDS011;9002;42.708;23.186;2023-10-13T09:45:50;23.43;;;13.83;;
8702;SDS011;9002;42.708;23.186;2023-10-13T09:48:31;22.43;;;14.13;;
8702;SDS011;9002;42.708;23.186;2023-10-13T09:51:00;23.63;;;13.70;;
8702;SDS011;9002;42.708;23.186;2023-10-13T09:53:30;18.40;;;13.47;;
8702;SDS011;9002;42.708;23.186;2023-10-13T09:56:00;16.90;;;12.37;;
8702;SDS011;9002;42.708;23.186;2023-10-13T09:58:39;21.60;;;13.53;;
8702;SDS011;9002;42.708;23.186;2023-10-13T10:01:17;22.27;;;12.20;;
8702;SDS011;9002;42.708;23.186;2023-10-13T10:04:05;17.73;;;11.77;;
8702;SDS011;9002;42.708;23.186;2023-10-13T10:06:34;17.43;;;12.00;;
8702;SDS011;9002;42.708;23.186;2023-10-13T10:09:05;16.87;;;11.37;;
8702;SDS011;9002;42.708;23.186;2023-10-13T10:17:53;16.47;;;11.07;;
8702;SDS011;9002;42.708;23.186;2023-10-13T10:20:27;19.17;;;11.20;;
8702;SDS011;9002;42.708;23.186;2023-10-13T10:22:58;16.00;;;10.23;;
8702;SDS011;9002;42.708;23.186;2023-10-13T10:25:29;11.73;;;7.93;;
8702;SDS011;9002;42.708;23.186;2023-10-13T10:28:00;12.23;;;7.53;;
8702;SDS011;9002;42.708;23.186;2023-10-13T10:30:32;13.70;;;7.77;;
8702;SDS011;9002;42.708;23.186;2023-10-13T10:33:00;15.43;;;8.17;;
8702;SDS011;9002;42.708;23.186;2023-10-13T10:35:32;11.97;;;7.50;;
8702;SDS011;9002;42.708;23.186;2023-10-13T10:38:06;16.10;;;7.10;;
8702;SDS011;9002;42.708;23.186;2023-10-13T10:40:51;15.23;;;7.87;;
8702;SDS011;9002;42.708;23.186;2023-10-13T10:43:22;11.73;;;7.27;;
8702;SDS011;9002;42.708;23.186;2023-10-13T10:45:55;12.83;;;7.77;;
8702;SDS011;9002;42.708;23.186;2023-10-13T10:48:26;9.87;;;7.40;;
8702;SDS011;9002;42.708;23.186;2023-10-13T10:50:59;13.57;;;7.80;;
8702;SDS011;9002;42.708;23.186;2023-10-13T10:53:33;9.47;;;7.10;;
8702;SDS011;9002;42.708;23.186;2023-10-13T10:56:09;11.00;;;7.53;;
8702;SDS011;9002;42.708;23.186;2023-10-13T10:58:50;11.23;;;7.27;;
8702;SDS011;9002;42.708;23.186;2023-10-13T11:01:22;11.40;;;7.03;;
8702;SDS011;9002;42.708;23.186;2023-10-13T11:03:53;8.70;;;6.10;;
8702;SDS011;9002;42.708;23.186;2023-10-13T11:06:22;9.87;;;6.40;;
8702;SDS011;9002;42.708;23.186;2023-10-13T11:09:00;12.43;;;7.10;;
8702;SDS011;9002;42.708;23.186;2023-10-13T11:11:29;10.37;;;6.77;;
8702;SDS011;9002;42.708;23.186;2023-10-13T11:14:00;12.50;;;8.43;;
8702;SDS011;9002;42.708;23.186;2023-10-13T11:16:47;13.30;;;7.03;;
8702;SDS011;9002;42.708;23.186;2023-10-13T11:19:19;8.33;;;6.50;;
8702;SDS011;9002;42.708;23.186;2023-10-13T11:21:53;14.90;;;7.70;;
8702;SDS011;9002;42.708;23.186;2023-10-13T11:24:21;11.37;;;5.97;;
8702;SDS011;9002;42.708;23.186;2023-10-13T11:26:48;7.33;;;4.70;;
8702;SDS011;9002;42.708;23.186;2023-10-13T11:29:16;5.20;;;4.20;;
8702;SDS011;9002;42.708;23.186;2023-10-13T11:31:46;6.57;;;4.00;;
8702;SDS011;9002;42.708;23.186;2023-10-13T11:34:22;8.47;;;4.63;;
8702;SDS011;9002;42.708;23.186;2023-10-13T11:36:50;7.33;;;3.60;;
8702;SDS011;9002;42.708;23.186;2023-10-13T11:39:17;9.63;;;3.83;;
8702;SDS011;9002;42.708;23.186;2023-10-13T11:41:49;7.07;;;4.20;;
8702;SDS011;9002;42.708;23.186;2023-10-13T11:44:20;6.93;;;4.07;;
8702;SDS011;9002;42.708;23.186;2023-10-13T11:46:51;7.10;;;4.47;;
8702;SDS011;9002;42.708;23.186;2023-10-13T11:49:40;5.73;;;3.97;;
8702;SDS011;9002;42.708;23.186;2023-10-13T11:52:06;9.67;;;4.70;;
8702;SDS011;9002;42.708;23.186;2023-10-13T11:54:45;8.20;;;3.93;;
8702;SDS011;9002;42.708;23.186;2023-10-13T11:57:13;7.30;;;4.53;;
8702;SDS011;9002;42.708;23.186;2023-10-13T11:59:42;8.43;;;4.20;;
8702;SDS011;9002;42.708;23.186;2023-10-13T12:02:22;9.50;;;5.17;;
8702;SDS011;9002;42.708;23.186;2023-10-13T12:05:21;6.47;;;4.53;;
8702;SDS011;9002;42.708;23.186;2023-10-13T12:07:55;8.47;;;4.43;;
8702;SDS011;9002;42.708;23.186;2023-10-13T12:10:28;6.90;;;5.17;;
8702;SDS011;9002;42.708;23.186;2023-10-13T12:13:04;7.50;;;4.63;;
8702;SDS011;9002;42.708;23.186;2023-10-13T12:15:35;10.60;;;5.17;;
8702;SDS011;9002;42.708;23.186;2023-10-13T12:18:15;9.27;;;4.67;;
8702;SDS011;9002;42.708;23.186;2023-10-13T12:20:44;7.97;;;4.87;;
8702;SDS011;9002;42.708;23.186;2023-10-13T12:23:12;8.27;;;5.13;;
8702;SDS011;9002;42.708;23.186;2023-10-13T12:25:42;8.97;;;4.27;;
8702;SDS011;9002;42.708;23.186;2023-10-13T12:28:25;10.20;;;6.50;;
8702;SDS011;9002;42.708;23.186;2023-10-13T12:30:56;8.20;;;4.43;;
8702;SDS011;9002;42.708;23.186;2023-10-13T12:33:34;6.07;;;3.73;;
8702;SDS011;9002;42.708;23.186;2023-10-13T12:36:05;7.80;;;4.20;;
8702;SDS011;9002;42.708;23.186;2023-10-13T12:38:34;13.40;;;11.17;;
8702;SDS011;9002;42.708;23.186;2023-10-13T12:41:37;10.87;;;7.83;;
8702;SDS011;9002;42.708;23.186;2023-10-13T12:44:22;12.30;;;7.00;;
8702;SDS011;9002;42.708;23.186;2023-10-13T12:47:06;8.90;;;5.20;;
8702;SDS011;9002;42.708;23.186;2023-10-13T12:49:51;8.00;;;4.60;;
8702;SDS011;9002;42.708;23.186;2023-10-13T12:52:25;6.73;;;4.50;;
8702;SDS011;9002;42.708;23.186;2023-10-13T12:54:52;7.97;;;4.20;;
8702;SDS011;9002;42.708;23.186;2023-10-13T13:00:12;7.67;;;4.77;;
8702;SDS011;9002;42.708;23.186;2023-10-13T13:02:51;10.30;;;4.97;;
8702;SDS011;9002;42.708;23.186;2023-10-13T13:05:22;7.17;;;4.90;;
8702;SDS011;9002;42.708;23.186;2023-10-13T13:07:53;9.63;;;4.60;;
8702;SDS011;9002;42.708;23.186;2023-10-13T13:10:21;7.33;;;4.10;;
8702;SDS011;9002;42.708;23.186;2023-10-13T13:13:01;6.50;;;4.67;;
8702;SDS011;9002;42.708;23.186;2023-10-13T13:15:53;9.83;;;4.60;;
8702;SDS011;9002;42.708;23.186;2023-10-13T13:18:20;11.83;;;4.90;;
8702;SDS011;9002;42.708;23.186;2023-10-13T13:20:48;6.53;;;4.00;;
8702;SDS011;9002;42.708;23.186;2023-10-13T13:23:19;7.77;;;4.57;;
8702;SDS011;9002;42.708;23.186;2023-10-13T13:25:50;12.50;;;8.83;;
8702;SDS011;9002;42.708;23.186;2023-10-13T13:28:17;11.20;;;4.87;;
8702;SDS011;9002;42.708;23.186;2023-10-13T13:30:44;5.77;;;4.10;;
8702;SDS011;9002;42.708;23.186;2023-10-13T13:33:17;7.73;;;4.33;;
8702;SDS011;9002;42.708;23.186;2023-10-13T13:35:52;7.27;;;4.57;;
8702;SDS011;9002;42.708;23.186;2023-10-13T13:38:20;8.33;;;4.40;;
8702;SDS011;9002;42.708;23.186;2023-10-13T13:40:52;7.53;;;4.47;;
8702;SDS011;9002;42.708;23.186;2023-10-13T13:43:20;10.10;;;4.80;;
8702;SDS011;9002;42.708;23.186;2023-10-13T13:46:01;9.87;;;4.80;;
8702;SDS011;9002;42.708;23.186;2023-10-13T13:48:28;9.23;;;4.93;;
8702;SDS011;9002;42.708;23.186;2023-10-13T13:50:58;5.87;;;4.73;;
8702;SDS011;9002;42.708;23.186;2023-10-13T13:53:29;9.13;;;5.23;;
8702;SDS011;9002;42.708;23.186;2023-10-13T13:56:00;8.50;;;5.53;;
8702;SDS011;9002;42.708;23.186;2023-10-13T13:58:27;9.43;;;5.30;;
8702;SDS011;9002;42.708;23.186;2023-10-13T14:00:59;9.97;;;5.43;;
8702;SDS011;9002;42.708;23.186;2023-10-13T14:03:26;10.37;;;5.30;;
8702;SDS011;9002;42.708;23.186;2023-10-13T14:05:58;9.70;;;5.20;;
8702;SDS011;9002;42.708;23.186;2023-10-13T14:08:25;8.90;;;4.83;;
8702;SDS011;9002;42.708;23.186;2023-10-13T14:10:52;9.10;;;4.80;;
8702;SDS011;9002;42.708;23.186;2023-10-13T14:13:36;7.47;;;4.57;;
8702;SDS011;9002;42.708;23.186;2023-10-13T14:16:14;8.83;;;4.90;;
8702;SDS011;9002;42.708;23.186;2023-10-13T14:18:44;8.47;;;5.87;;
8702;SDS011;9002;42.708;23.186;2023-10-13T14:21:12;7.73;;;4.90;;
8702;SDS011;9002;42.708;23.186;2023-10-13T14:23:45;7.67;;;5.33;;
8702;SDS011;9002;42.708;23.186;2023-10-13T14:26:13;10.53;;;5.50;;
8702;SDS011;9002;42.708;23.186;2023-10-13T14:28:40;11.60;;;5.40;;
8702;SDS011;9002;42.708;23.186;2023-10-13T14:31:17;9.70;;;5.83;;
8702;SDS011;9002;42.708;23.186;2023-10-13T14:36:26;9.23;;;5.50;;
8702;SDS011;9002;42.708;23.186;2023-10-13T14:38:53;10.73;;;5.60;;
8702;SDS011;9002;42.708;23.186;2023-10-13T14:41:21;8.03;;;5.20;;
8702;SDS011;9002;42.708;23.186;2023-10-13T14:43:48;10.23;;;5.53;;
8702;SDS011;9002;42.708;23.186;2023-10-13T14:46:15;9.40;;;5.93;;
8702;SDS011;9002;42.708;23.186;2023-10-13T14:48:42;6.93;;;5.50;;
8702;SDS011;9002;42.708;23.186;2023-10-13T14:51:09;10.77;;;5.53;;
8702;SDS011;9002;42.708;23.186;2023-10-13T14:53:40;10.93;;;6.10;;
8702;SDS011;9002;42.708;23.186;2023-10-13T14:56:09;10.50;;;6.10;;
8702;SDS011;9002;42.708;23.186;2023-10-13T14:58:37;7.07;;;5.67;;
8702;SDS011;9002;42.708;23.186;2023-10-13T15:01:11;8.30;;;5.80;;
8702;SDS011;9002;42.708;23.186;2023-10-13T15:03:40;9.57;;;6.47;;
8702;SDS011;9002;42.708;23.186;2023-10-13T15:06:14;11.93;;;6.33;;
8702;SDS011;9002;42.708;23.186;2023-10-13T15:08:44;8.33;;;7.30;;
8702;SDS011;9002;42.708;23.186;2023-10-13T15:11:12;13.37;;;7.00;;
8702;SDS011;9002;42.708;23.186;2023-10-13T15:13:39;12.33;;;8.63;;
8702;SDS011;9002;42.708;23.186;2023-10-13T15:16:13;10.63;;;6.83;;
8702;SDS011;9002;42.708;23.186;2023-10-13T15:18:43;15.47;;;6.80;;
8702;SDS011;9002;42.708;23.186;2023-10-13T15:21:18;11.07;;;6.47;;
8702;SDS011;9002;42.708;23.186;2023-10-13T15:23:49;14.67;;;6.97;;
8702;SDS011;9002;42.708;23.186;2023-10-13T15:26:18;12.57;;;7.47;;
8702;SDS011;9002;42.708;23.186;2023-10-13T15:28:49;10.90;;;6.93;;
8702;SDS011;9002;42.708;23.186;2023-10-13T15:31:18;10.50;;;6.27;;
8702;SDS011;9002;42.708;23.186;2023-10-13T15:34:02;14.87;;;6.20;;
8702;SDS011;9002;42.708;23.186;2023-10-13T15:36:32;15.37;;;6.37;;
8702;SDS011;9002;42.708;23.186;2023-10-13T15:39:00;14.47;;;7.80;;